createdAt,value
2018-04-29T00:01:49.936Z,22.57
2018-04-29T00:04:17.417Z,20.63
2018-04-29T00:06:44.908Z,32.13
2018-04-29T00:09:13.136Z,22.77
2018-04-29T00:11:40.664Z,26.07
2018-04-29T00:14:08.124Z,24.50
2018-04-29T00:16:35.607Z,24.77
2018-04-29T00:19:03.064Z,25.80
2018-04-29T00:21:30.556Z,26.43
2018-04-29T00:23:58.015Z,29.80
2018-04-29T00:26:25.475Z,35.63
2018-04-29T00:28:52.955Z,25.27
2018-04-29T00:31:20.407Z,34.50
2018-04-29T00:33:48.656Z,25.00
2018-04-29T00:36:16.115Z,32.87
2018-04-29T00:38:43.638Z,36.93
2018-04-29T00:41:11.079Z,37.90
2018-04-29T00:43:38.552Z,64.00
2018-04-29T00:46:06.043Z,58.30
2018-04-29T00:48:33.502Z,42.73
2018-04-29T00:51:00.962Z,36.57
2018-04-29T00:53:28.452Z,41.63
2018-04-29T00:55:56.703Z,37.53
2018-04-29T00:58:24.171Z,33.70
2018-04-29T01:00:51.652Z,37.10
2018-04-29T01:03:19.887Z,36.50
2018-04-29T01:05:47.371Z,31.33
2018-04-29T01:08:14.859Z,35.73
2018-04-29T01:10:42.348Z,27.97
2018-04-29T01:13:09.825Z,31.80
2018-04-29T01:15:37.335Z,41.93
2018-04-29T01:18:04.783Z,30.10
2018-04-29T01:20:33.003Z,29.77
2018-04-29T01:23:00.487Z,33.80
2018-04-29T01:25:27.961Z,33.60
2018-04-29T01:27:55.428Z,30.37
2018-04-29T01:30:22.912Z,29.23
2018-04-29T01:32:50.387Z,30.93
2018-04-29T01:35:17.868Z,35.43
2018-04-29T01:37:45.328Z,33.60
2018-04-29T01:40:12.851Z,27.97
2018-04-29T01:42:40.346Z,30.43
2018-04-29T01:45:07.799Z,37.27
2018-04-29T01:47:35.256Z,39.67
2018-04-29T01:50:02.753Z,37.53
2018-04-29T01:52:30.230Z,40.47
2018-04-29T01:54:57.687Z,45.50
2018-04-29T01:57:25.175Z,33.87
2018-04-29T01:59:52.659Z,35.17
2018-04-29T02:02:20.129Z,34.67
2018-04-29T02:04:47.601Z,40.87
2018-04-29T02:07:15.869Z,37.47
2018-04-29T02:09:43.332Z,36.90
2018-04-29T02:12:11.593Z,45.57
2018-04-29T02:14:39.051Z,42.17
2018-04-29T02:17:06.536Z,38.87
2018-04-29T02:19:34.750Z,41.73
2018-04-29T02:22:02.227Z,49.00
2018-04-29T02:24:29.699Z,44.73
2018-04-29T02:26:57.224Z,47.13
2018-04-29T02:29:24.684Z,44.73
2018-04-29T02:31:52.168Z,47.43
2018-04-29T02:34:19.619Z,47.83
2018-04-29T02:36:47.074Z,42.97
2018-04-29T02:39:14.559Z,44.23
2018-04-29T02:41:42.016Z,50.10
2018-04-29T02:44:09.508Z,42.07
2018-04-29T02:46:37.024Z,43.23
2018-04-29T02:49:04.512Z,54.77
2018-04-29T02:51:32.775Z,50.53
2018-04-29T02:54:00.252Z,53.60
2018-04-29T02:56:28.479Z,55.63
2018-04-29T02:58:55.963Z,49.80
2018-04-29T03:01:23.431Z,52.00
2018-04-29T03:03:51.680Z,50.07
2018-04-29T03:06:19.167Z,45.80
2018-04-29T03:08:47.400Z,51.37
2018-04-29T03:11:15.640Z,47.87
2018-04-29T03:13:43.115Z,44.73
2018-04-29T03:16:10.611Z,40.77
2018-04-29T03:18:38.839Z,49.13
2018-04-29T03:21:06.330Z,43.20
2018-04-29T03:23:33.823Z,52.73
2018-04-29T03:26:01.287Z,42.93
2018-04-29T03:28:29.510Z,41.80
2018-04-29T03:30:57.047Z,44.13
2018-04-29T03:33:24.520Z,39.10
2018-04-29T03:35:52.004Z,41.10
2018-04-29T03:38:19.467Z,43.17
2018-04-29T03:40:46.956Z,39.00
2018-04-29T03:43:14.435Z,50.83
2018-04-29T03:45:41.909Z,45.53
2018-04-29T03:48:09.388Z,45.90
2018-04-29T03:50:36.875Z,48.37
2018-04-29T03:53:04.332Z,50.60
2018-04-29T03:55:31.812Z,43.50
2018-04-29T03:58:11.936Z,48.57
2018-04-29T04:00:51.368Z,40.47
2018-04-29T04:03:30.616Z,44.60
2018-04-29T04:05:58.096Z,49.20
2018-04-29T04:08:26.315Z,42.63
2018-04-29T04:10:53.799Z,44.03
2018-04-29T04:13:21.288Z,39.20
2018-04-29T04:15:49.537Z,43.40
2018-04-29T04:18:17.018Z,40.23
2018-04-29T04:20:44.486Z,40.37
2018-04-29T04:23:12.746Z,51.33
2018-04-29T04:25:40.201Z,46.40
2018-04-29T04:28:07.684Z,39.83
2018-04-29T04:30:35.907Z,39.20
2018-04-29T04:33:03.393Z,34.10
2018-04-29T04:35:30.878Z,32.80
2018-04-29T04:37:58.334Z,41.30
2018-04-29T04:40:25.936Z,38.53
2018-04-29T04:42:53.500Z,34.47
2018-04-29T04:45:20.993Z,28.97
2018-04-29T04:47:48.451Z,31.70
2018-04-29T04:50:15.922Z,24.00
2018-04-29T04:52:44.164Z,24.87
2018-04-29T04:55:11.643Z,22.00
2018-04-29T04:57:39.112Z,23.50
2018-04-29T05:00:07.427Z,21.60
2018-04-29T05:02:34.880Z,21.70
2018-04-29T05:05:03.255Z,25.43
2018-04-29T05:07:30.717Z,22.63
2018-04-29T05:09:58.202Z,24.07
2018-04-29T05:12:26.422Z,17.13
2018-04-29T05:14:54.672Z,19.30
2018-04-29T05:17:22.195Z,17.23
2018-04-29T05:19:49.715Z,19.33
2018-04-29T05:22:17.997Z,18.37
2018-04-29T05:24:45.428Z,17.23
2018-04-29T05:27:12.879Z,21.40
2018-04-29T05:29:40.366Z,20.50
2018-04-29T05:32:07.823Z,17.67
2018-04-29T05:34:35.318Z,21.90
2018-04-29T05:37:02.800Z,18.50
2018-04-29T05:39:30.291Z,21.30
2018-04-29T05:41:57.744Z,19.00
2018-04-29T05:44:25.254Z,23.17
2018-04-29T05:46:52.717Z,23.57
2018-04-29T05:49:20.178Z,18.97
2018-04-29T05:51:47.667Z,18.70
2018-04-29T05:54:15.171Z,17.40
2018-04-29T05:56:43.395Z,20.57
2018-04-29T05:59:10.856Z,20.10
2018-04-29T06:01:38.337Z,17.57
2018-04-29T06:04:05.811Z,17.87
2018-04-29T06:06:34.165Z,17.73
2018-04-29T06:09:01.700Z,20.33
2018-04-29T06:11:29.185Z,19.90
2018-04-29T06:13:56.674Z,17.67
2018-04-29T06:16:24.911Z,22.27
2018-04-29T06:18:52.379Z,17.30
2018-04-29T06:21:19.867Z,19.70
2018-04-29T06:23:47.355Z,16.53
2018-04-29T06:26:14.918Z,25.07
2018-04-29T06:28:42.316Z,18.83
2018-04-29T06:31:09.784Z,19.47
2018-04-29T06:33:37.251Z,20.33
2018-04-29T06:36:04.901Z,20.80
2018-04-29T06:38:32.598Z,20.50
2018-04-29T06:41:00.325Z,21.87
2018-04-29T06:43:27.803Z,24.67
2018-04-29T06:45:55.299Z,21.63
2018-04-29T06:48:22.903Z,23.13
2018-04-29T06:50:50.643Z,20.60
2018-04-29T06:53:18.190Z,22.50
2018-04-29T06:55:45.712Z,22.03
2018-04-29T06:58:14.071Z,22.13
2018-04-29T07:00:41.841Z,25.87
2018-04-29T07:03:09.427Z,27.90
2018-04-29T07:05:36.911Z,22.10
2018-04-29T07:08:04.477Z,23.00
2018-04-29T07:10:32.744Z,23.60
2018-04-29T07:13:01.031Z,25.17
2018-04-29T07:15:28.503Z,25.53
2018-04-29T07:17:56.055Z,20.43
2018-04-29T07:20:23.699Z,25.43
2018-04-29T07:22:51.174Z,23.10
2018-04-29T07:25:18.645Z,22.80
2018-04-29T07:27:46.130Z,33.50
2018-04-29T07:30:13.586Z,21.87
2018-04-29T07:32:41.068Z,29.97
2018-04-29T07:35:09.284Z,27.90
2018-04-29T07:37:37.007Z,25.87
2018-04-29T07:40:04.666Z,24.93
2018-04-29T07:42:32.119Z,29.80
2018-04-29T07:45:00.378Z,27.30
2018-04-29T07:47:28.083Z,27.07
2018-04-29T07:49:55.710Z,24.60
2018-04-29T07:52:23.298Z,27.20
2018-04-29T07:54:50.892Z,24.50
2018-04-29T07:57:18.467Z,30.87
2018-04-29T07:59:46.180Z,29.80
2018-04-29T08:02:13.995Z,28.63
2018-04-29T08:04:41.736Z,34.53
2018-04-29T08:07:09.521Z,30.17
2018-04-29T08:09:38.156Z,27.37
2018-04-29T08:12:05.699Z,36.70
2018-04-29T08:14:34.211Z,30.03
2018-04-29T08:17:01.902Z,31.43
2018-04-29T08:19:29.609Z,29.33
2018-04-29T08:21:57.304Z,26.20
2018-04-29T08:24:24.859Z,25.90
2018-04-29T08:26:52.433Z,27.87
2018-04-29T08:29:19.920Z,27.73
2018-04-29T08:31:47.571Z,31.50
2018-04-29T08:34:15.339Z,29.87
2018-04-29T08:36:43.070Z,42.10
2018-04-29T08:39:10.592Z,41.43
2018-04-29T08:41:38.081Z,36.47
2018-04-29T08:44:06.338Z,35.93
2018-04-29T08:46:33.813Z,30.67
2018-04-29T08:49:02.076Z,36.90
2018-04-29T08:51:29.560Z,36.03
2018-04-29T08:53:57.036Z,32.60
2018-04-29T08:56:24.516Z,28.87
2018-04-29T08:58:52.071Z,34.53
2018-04-29T09:01:19.596Z,32.67
2018-04-29T09:03:47.155Z,28.23
2018-04-29T09:06:14.559Z,38.83
2018-04-29T09:08:42.035Z,27.03
2018-04-29T09:11:09.495Z,28.00
2018-04-29T09:13:36.972Z,29.73
2018-04-29T09:16:04.432Z,26.63
2018-04-29T09:18:31.924Z,32.30
2018-04-29T09:20:59.379Z,33.47
2018-04-29T09:23:26.839Z,30.00
2018-04-29T09:25:54.331Z,33.77
2018-04-29T09:28:21.852Z,29.87
2018-04-29T09:30:49.419Z,31.23
2018-04-29T09:33:16.879Z,28.40
2018-04-29T09:35:44.461Z,32.80
2018-04-29T09:38:12.750Z,34.53
2018-04-29T09:40:40.264Z,33.30
2018-04-29T09:43:07.773Z,32.07
2018-04-29T09:45:35.496Z,33.00
2018-04-29T09:48:03.185Z,33.60
2018-04-29T09:50:30.947Z,37.73
2018-04-29T09:52:58.612Z,33.23
2018-04-29T09:55:26.258Z,45.27
2018-04-29T09:57:53.751Z,40.60
2018-04-29T10:00:27.277Z,29.90
2018-04-29T10:03:00.573Z,40.10
2018-04-29T10:05:28.824Z,38.10
2018-04-29T10:07:56.456Z,33.77
2018-04-29T10:10:24.715Z,39.87
2018-04-29T10:12:52.300Z,38.87
2018-04-29T10:15:19.838Z,35.03
2018-04-29T10:17:47.305Z,41.03
2018-04-29T10:20:14.900Z,38.80
2018-04-29T10:22:42.366Z,36.00
2018-04-29T10:25:09.838Z,39.37
2018-04-29T10:27:38.334Z,41.83
2018-04-29T10:30:06.123Z,34.23
2018-04-29T10:32:33.812Z,38.60
2018-04-29T10:35:01.475Z,36.80
2018-04-29T10:37:29.111Z,34.47
2018-04-29T10:39:56.596Z,32.50
2018-04-29T10:42:24.239Z,31.07
2018-04-29T10:44:51.734Z,38.77
2018-04-29T10:47:19.196Z,34.60
2018-04-29T10:49:46.760Z,42.70
2018-04-29T10:52:14.239Z,40.13
2018-04-29T10:54:41.736Z,41.40
2018-04-29T10:57:09.192Z,35.30
2018-04-29T10:59:36.660Z,38.63
2018-04-29T11:02:04.128Z,31.97
2018-04-29T11:04:31.621Z,40.13
2018-04-29T11:06:59.102Z,34.07
2018-04-29T11:09:26.594Z,32.73
2018-04-29T11:11:54.103Z,40.57
2018-04-29T11:14:22.653Z,33.63
2018-04-29T11:16:50.151Z,43.77
2018-04-29T11:19:18.374Z,36.13
2018-04-29T11:21:46.007Z,37.93
2018-04-29T11:24:13.486Z,36.20
2018-04-29T11:26:40.972Z,34.73
2018-04-29T11:29:08.423Z,31.53
2018-04-29T11:31:35.908Z,36.23
2018-04-29T11:34:04.140Z,34.07
2018-04-29T11:36:31.623Z,33.10
2018-04-29T11:38:59.079Z,29.37
2018-04-29T11:41:26.701Z,35.13
2018-04-29T11:43:54.960Z,31.80
2018-04-29T11:46:23.204Z,36.70
2018-04-29T11:48:50.671Z,32.23
2018-04-29T11:51:18.170Z,27.87
2018-04-29T11:53:45.923Z,30.73
2018-04-29T11:56:13.460Z,28.83
2018-04-29T11:58:41.732Z,34.40
2018-04-29T12:01:11.187Z,29.33
2018-04-29T12:03:38.694Z,25.30
2018-04-29T12:06:06.147Z,33.83
2018-04-29T12:08:33.649Z,24.67
2018-04-29T12:11:01.116Z,31.13
2018-04-29T12:13:28.600Z,32.70
2018-04-29T12:15:56.092Z,31.93
2018-04-29T12:18:23.575Z,33.73
2018-04-29T12:20:51.023Z,32.23
2018-04-29T12:23:18.503Z,32.27
2018-04-29T12:25:46.016Z,34.67
2018-04-29T12:28:13.459Z,28.03
2018-04-29T12:30:40.950Z,29.50
2018-04-29T12:33:09.291Z,27.83
2018-04-29T12:35:36.743Z,31.90
2018-04-29T12:38:04.204Z,32.10
2018-04-29T12:40:32.643Z,28.90
2018-04-29T12:43:00.371Z,31.50
2018-04-29T12:45:27.859Z,28.70
2018-04-29T12:47:55.307Z,31.73
2018-04-29T12:50:22.791Z,26.10
2018-04-29T12:52:50.279Z,29.33
2018-04-29T12:55:17.734Z,30.43
2018-04-29T12:57:45.204Z,26.43
2018-04-29T13:00:12.753Z,27.77
2018-04-29T13:02:40.171Z,26.90
2018-04-29T13:05:07.626Z,23.53
2018-04-29T13:07:35.869Z,22.80
2018-04-29T13:10:03.352Z,25.20
2018-04-29T13:12:31.590Z,28.20
2018-04-29T13:14:59.072Z,24.73
2018-04-29T13:17:26.532Z,22.10
2018-04-29T13:19:54.007Z,23.57
2018-04-29T13:22:22.232Z,22.67
2018-04-29T13:24:49.712Z,25.70
2018-04-29T13:27:17.176Z,23.20
2018-04-29T13:29:44.660Z,18.90
2018-04-29T13:32:12.923Z,20.60
2018-04-29T13:34:41.153Z,29.03
2018-04-29T13:37:08.612Z,16.93
2018-04-29T13:39:36.096Z,18.60
2018-04-29T13:42:03.669Z,19.67
2018-04-29T13:44:31.027Z,19.77
2018-04-29T13:46:58.509Z,19.03
2018-04-29T13:49:25.985Z,19.70
2018-04-29T13:51:53.473Z,17.93
2018-04-29T13:54:20.951Z,14.70
2018-04-29T13:56:48.435Z,16.43
2018-04-29T13:59:15.934Z,20.70
2018-04-29T14:01:43.455Z,15.17
2018-04-29T14:04:10.916Z,15.93
2018-04-29T14:06:38.408Z,15.77
2018-04-29T14:09:05.890Z,15.87
2018-04-29T14:11:33.378Z,21.03
2018-04-29T14:14:00.883Z,13.83
2018-04-29T14:16:28.427Z,16.93
2018-04-29T14:18:55.898Z,13.37
2018-04-29T14:21:23.375Z,13.80
2018-04-29T14:23:50.834Z,13.73
2018-04-29T14:26:18.327Z,15.93
2018-04-29T14:28:45.799Z,20.23
2018-04-29T14:31:13.326Z,18.33
2018-04-29T14:33:40.763Z,16.90
2018-04-29T14:36:08.232Z,21.33
2018-04-29T14:38:35.716Z,18.67
2018-04-29T14:41:03.195Z,22.77
2018-04-29T14:43:30.642Z,25.27
2018-04-29T14:45:58.918Z,21.60
2018-04-29T14:48:27.182Z,27.17
2018-04-29T14:50:54.640Z,29.47
2018-04-29T14:53:22.095Z,27.77
2018-04-29T14:55:49.684Z,26.30
2018-04-29T14:58:17.210Z,27.17
2018-04-29T15:00:44.672Z,25.57
2018-04-29T15:03:12.150Z,33.93
2018-04-29T15:05:39.643Z,22.57
2018-04-29T15:08:07.107Z,20.97
2018-04-29T15:10:34.732Z,22.50
2018-04-29T15:13:02.525Z,24.43
2018-04-29T15:15:30.256Z,23.43
2018-04-29T15:17:58.659Z,27.30
2018-04-29T15:20:26.239Z,19.03
2018-04-29T15:22:53.847Z,19.67
2018-04-29T15:25:21.548Z,25.40
2018-04-29T15:27:49.347Z,20.57
2018-04-29T15:30:16.900Z,22.33
2018-04-29T15:32:44.392Z,22.33
2018-04-29T15:35:12.079Z,28.53
2018-04-29T15:37:39.644Z,20.77
2018-04-29T15:40:07.381Z,20.70
2018-04-29T15:42:35.652Z,24.33
2018-04-29T15:45:03.301Z,29.83
2018-04-29T15:47:30.834Z,24.50
2018-04-29T15:49:58.496Z,26.70
2018-04-29T15:52:26.036Z,25.17
2018-04-29T15:54:53.578Z,26.37
2018-04-29T15:57:21.812Z,27.40
2018-04-29T15:59:49.335Z,23.00
2018-04-29T16:02:16.828Z,24.20
2018-04-29T16:04:44.299Z,22.77
2018-04-29T16:07:11.773Z,25.80
2018-04-29T16:09:39.237Z,24.33
2018-04-29T16:12:06.696Z,23.20
2018-04-29T16:14:34.951Z,20.20
2018-04-29T16:17:02.405Z,20.63
2018-04-29T16:19:30.029Z,25.30
2018-04-29T16:21:58.587Z,26.53
2018-04-29T16:24:26.074Z,21.13
2018-04-29T16:26:53.553Z,24.63
2018-04-29T16:29:21.105Z,24.53
2018-04-29T16:31:48.580Z,23.00
2018-04-29T16:34:16.094Z,22.37
2018-04-29T16:36:44.417Z,21.07
2018-04-29T16:39:12.075Z,27.10
2018-04-29T16:41:39.816Z,23.70
2018-04-29T16:44:07.510Z,28.73
2018-04-29T16:46:35.047Z,26.87
2018-04-29T16:49:03.726Z,25.00
2018-04-29T16:51:31.376Z,27.83
2018-04-29T16:53:58.977Z,20.90
2018-04-29T16:56:26.700Z,26.57
2018-04-29T16:58:54.429Z,24.43
2018-04-29T17:01:22.179Z,32.43
2018-04-29T17:03:49.716Z,25.23
2018-04-29T17:06:17.171Z,24.83
2018-04-29T17:08:44.644Z,25.03
2018-04-29T17:11:12.119Z,20.50
2018-04-29T17:13:39.595Z,20.40
2018-04-29T17:16:07.832Z,30.00
2018-04-29T17:18:35.315Z,26.80
2018-04-29T17:21:03.717Z,33.80
2018-04-29T17:23:31.225Z,25.23
2018-04-29T17:25:58.692Z,26.53
2018-04-29T17:28:26.943Z,51.93
2018-04-29T17:30:54.432Z,20.87
2018-04-29T17:33:21.899Z,24.90
2018-04-29T17:35:49.390Z,31.40
2018-04-29T17:38:17.631Z,31.23
2018-04-29T17:40:45.119Z,27.90
2018-04-29T17:43:13.347Z,31.10
2018-04-29T17:45:40.892Z,30.90
2018-04-29T17:48:08.349Z,34.73
2018-04-29T17:50:35.840Z,34.70
2018-04-29T17:53:03.338Z,31.10
2018-04-29T17:55:30.811Z,34.43
2018-04-29T17:57:58.271Z,27.60
2018-04-29T18:00:25.762Z,38.90
2018-04-29T18:02:53.256Z,36.27
2018-04-29T18:05:20.798Z,36.87
2018-04-29T18:07:48.331Z,37.77
2018-04-29T18:10:15.807Z,41.53
2018-04-29T18:12:43.291Z,33.30
2018-04-29T18:15:10.772Z,37.30
2018-04-29T18:17:39.029Z,37.73
2018-04-29T18:20:06.550Z,34.17
2018-04-29T18:22:34.043Z,36.77
2018-04-29T18:25:01.613Z,37.87
2018-04-29T18:27:29.997Z,43.30
2018-04-29T18:29:57.423Z,41.20
2018-04-29T18:32:24.910Z,44.77
2018-04-29T18:34:52.377Z,44.33
2018-04-29T18:37:20.905Z,41.20
2018-04-29T18:39:48.551Z,35.50
2018-04-29T18:42:16.155Z,42.97
2018-04-29T18:44:44.583Z,45.13
2018-04-29T18:47:12.274Z,43.10
2018-04-29T18:49:39.715Z,48.77
2018-04-29T18:52:07.376Z,54.83
2018-04-29T18:54:34.993Z,46.37
2018-04-29T18:57:03.038Z,49.20
2018-04-29T18:59:30.539Z,45.93
2018-04-29T19:01:58.275Z,50.30
2018-04-29T19:04:25.858Z,49.60
2018-04-29T19:06:53.527Z,48.73
2018-04-29T19:09:21.060Z,42.90
2018-04-29T19:11:48.733Z,50.00
2018-04-29T19:14:16.388Z,49.50
2018-04-29T19:16:43.918Z,49.17
2018-04-29T19:19:11.503Z,49.70
2018-04-29T19:21:39.137Z,55.50
2018-04-29T19:24:06.796Z,53.47
2018-04-29T19:26:34.298Z,59.70
2018-04-29T19:29:01.970Z,55.67
2018-04-29T19:31:30.460Z,53.57
2018-04-29T19:33:58.054Z,60.40
2018-04-29T19:36:25.742Z,54.50
2018-04-29T19:38:53.346Z,52.10
2018-04-29T19:41:20.943Z,55.10
2018-04-29T19:43:48.698Z,58.07
2018-04-29T19:46:16.391Z,53.97
2018-04-29T19:48:43.899Z,58.43
2018-04-29T19:51:11.476Z,56.73
2018-04-29T19:53:39.034Z,52.30
2018-04-29T19:56:06.651Z,62.70
2018-04-29T19:58:34.278Z,57.30
2018-04-29T20:01:01.983Z,60.00
2018-04-29T20:03:29.733Z,55.80
2018-04-29T20:05:57.556Z,56.17
2018-04-29T20:08:25.297Z,55.30
2018-04-29T20:10:53.735Z,55.20
2018-04-29T20:13:21.209Z,56.93
2018-04-29T20:15:48.882Z,52.60
2018-04-29T20:18:16.334Z,55.20
2018-04-29T20:20:43.819Z,47.00
2018-04-29T20:23:12.053Z,53.53
2018-04-29T20:25:39.691Z,63.10
2018-04-29T20:28:07.249Z,51.67
2018-04-29T20:30:34.939Z,51.93
2018-04-29T20:33:02.424Z,52.87
2018-04-29T20:35:29.895Z,53.57
2018-04-29T20:37:58.177Z,58.43
2018-04-29T20:40:25.640Z,51.50
2018-04-29T20:42:53.955Z,50.07
2018-04-29T20:45:21.418Z,52.93
2018-04-29T20:47:48.921Z,59.47
2018-04-29T20:50:16.395Z,46.27
2018-04-29T20:52:43.952Z,45.60
2018-04-29T20:55:12.254Z,48.90
2018-04-29T20:57:39.674Z,48.13
2018-04-29T21:00:07.183Z,50.20
2018-04-29T21:02:34.639Z,49.90
2018-04-29T21:05:02.120Z,57.30
2018-04-29T21:07:29.592Z,55.73
2018-04-29T21:09:57.106Z,50.53
2018-04-29T21:12:24.560Z,54.63
2018-04-29T21:14:52.164Z,49.63
2018-04-29T21:17:19.657Z,53.27
2018-04-29T21:19:47.101Z,41.47
2018-04-29T21:22:14.571Z,43.60
2018-04-29T21:24:42.024Z,55.83
2018-04-29T21:27:10.287Z,60.90
2018-04-29T21:29:37.741Z,50.13
2018-04-29T21:32:05.233Z,56.37
2018-04-29T21:34:32.695Z,55.67
2018-04-29T21:37:00.184Z,65.03
2018-04-29T21:39:27.662Z,61.47
2018-04-29T21:41:55.121Z,61.77
2018-04-29T21:44:22.605Z,48.00
2018-04-29T21:46:50.069Z,53.60
2018-04-29T21:49:18.316Z,61.83
2018-04-29T21:51:45.812Z,57.07
2018-04-29T21:54:14.033Z,59.43
2018-04-29T21:56:41.526Z,57.43
2018-04-29T21:59:08.984Z,51.60
2018-04-29T22:01:36.460Z,48.30
2018-04-29T22:04:04.706Z,52.70
2018-04-29T22:06:32.178Z,47.47
2018-04-29T22:08:59.668Z,47.83
2018-04-29T22:11:27.118Z,48.07
2018-04-29T22:13:55.372Z,42.43
2018-04-29T22:16:22.860Z,42.30
2018-04-29T22:18:50.316Z,46.07
2018-04-29T22:21:18.540Z,40.43
2018-04-29T22:23:46.017Z,41.77
2018-04-29T22:26:13.472Z,36.97
2018-04-29T22:28:40.946Z,36.47
2018-04-29T22:31:09.224Z,19.93
2018-04-29T22:33:37.515Z,35.70
2018-04-29T22:36:05.767Z,37.43
2018-04-29T22:38:33.258Z,25.07
2018-04-29T22:41:01.512Z,32.03
2018-04-29T22:43:28.988Z,29.30
2018-04-29T22:45:57.255Z,26.43
2018-04-29T22:48:25.485Z,26.90
2018-04-29T22:50:52.966Z,22.17
2018-04-29T22:53:20.443Z,25.47
2018-04-29T22:55:48.673Z,27.53
2018-04-29T22:58:16.153Z,29.67
2018-04-29T23:00:43.646Z,24.10
2018-04-29T23:03:11.887Z,29.77
2018-04-29T23:05:39.351Z,30.63
2018-04-29T23:08:06.852Z,26.30
2018-04-29T23:10:34.333Z,25.00
2018-04-29T23:13:01.815Z,22.57
2018-04-29T23:15:29.295Z,29.40
2018-04-29T23:17:56.764Z,25.57
2018-04-29T23:20:24.999Z,25.90
2018-04-29T23:22:52.456Z,27.87
2018-04-29T23:25:19.939Z,24.47
2018-04-29T23:27:47.398Z,33.43
2018-04-29T23:30:14.898Z,25.13
2018-04-29T23:32:42.360Z,22.27
2018-04-29T23:35:09.847Z,10.73
2018-04-29T23:37:37.312Z,14.97
2018-04-29T23:40:04.768Z,15.30
2018-04-29T23:42:32.241Z,16.90
2018-04-29T23:44:59.724Z,19.43
2018-04-29T23:47:28.011Z,16.80
2018-04-29T23:49:55.461Z,19.23
2018-04-29T23:52:23.686Z,14.90
2018-04-29T23:54:51.172Z,19.60
2018-04-29T23:57:18.648Z,20.43
2018-04-29T23:59:46.896Z,29.17
